Fair Play, Texas
Current Conditions -  °F | °C
As of 10:53 AM on Thursday 30 Oct 2014 (Local Time) from KGGG Reporting Station
Clear Clear  
Wind Chill: 65°   Ceiling: Unl
Heat Index: 65°   Visibility: 10mi
Dew Point: 49°   Wind: 7mph
Humidity: 56%   Direction: 150°SSE
Pressure: 30.18"   Gusts: NA
Location:  32.2533°N, 94.4616°W
Report Text: KGGG 301553Z 15006KT 10SM CLR 18/09 A3018 RMK AO2 SLP220 T01830094
Loading
Personal Weather Stations






























Interactive Weather Map
Tropical Storm Tracking
New forecast layout! Learn more

10-Day Weather Forecast

Advertisements
Track Severe Weather on mobile